Impacts TAF Board INFO
FOR SITUATIONAL AWARENESS. NOT TO BE USED FOR FLIGHT PLANNING PURPOSES.
IDs:

KTPA - Tampa Intl Arpt, FL, US

Issued at 1123 UTC 22 Feb 2018
Updated at 1218 UTC 22 Feb 2018
Potential Impact None Slight Moderate High
Time1153Z 22/13Z 22/14Z 22/15Z 22/16Z 22/17Z 22/18Z 22/19Z 22/20Z 22/21Z 22/22Z 22/23Z 23/00Z 23/01Z>>
Type OBS PRVL PRVL PRVL PRVL PRVL PRVL PRVL PRVL PRVL PRVL PRVL PRVL PRVL
VIS 10 >6 >6 >6 >6 >6 >6 >6 >6 >6 >6 >6 >6 >6
CIG -- -- -- -- -- -- -- -- -- -- -- -- -- --
Cover FEW SKC SCT SCT SCT SCT SCT SCT SCT SCT SCT SCT SCT SCT
FltCat VFR VFR VFR VFR VFR VFR VFR VFR VFR VFR VFR VFR VFR VFR
WX -- -- -- -- -- -- -- -- -- -- -- -- -- --
WDir 70 70 100 100 100 100 110 110 110 110 110 110 110 110
WSpd 5 5 7 7 7 7 7 7 7 7 7 7 7 7
WGst -- -- -- -- -- -- -- -- -- -- -- -- -- --

Raw TAF
KTPA 221123Z 2212/2318 07005KT P6SM SKC
  FM221400 10007KT P6SM SCT025
  FM221800 11007KT P6SM SCT050
  FM230200 08005KT P6SM SKC
  FM231400 11007KT P6SM SCT025


Raw METAR
KTPA 221153Z 07005KT 10SM FEW035 21/18 A3037 RMK AO2 SLP284 T02060183 10228 20200 53008
KTPA 221053Z 07005KT 10SM CLR 21/18 A3036 RMK AO2 SLP280 T02060183
KTPA 220953Z VRB03KT 10SM CLR 21/18 A3035 RMK AO2 SLP278 T02110183

METAR Board
Radar Display
Forecast Discussion

FOR SITUATIONAL AWARENESS. NOT TO BE USED FOR FLIGHT PLANNING PURPOSES.